»·PEaware :: N206DS KCOS-KAPA

N206DS :: KCOS-KAPA

FLIGHT INFORMATION

Flight Status: Arrived
Operator: Privately registered:
United States
More flights under this callsign
Pilot: Anonymous 26047 (26047)
Aircraft: BEECH AIRCRAFT BARON
(BE58)
More flights by this aircraft type
Origin: KCOS City Of Colorado Springs Mun
United States
Destination: KAPA Centennial
United States
More flights between these airports :: More routes between these airports
Route: BRK
File this flight plan on PilotEdge
Remarks:
Altitude:
(Current/Filed)
8,500ft
Speed:
(Current/Filed)
180kts
Departed: 10-Jan-20 07:49 PM
Arrived: 10-Jan-20 08:17 PM
Distance/Time
Traveled:
47nm/0:28
Distance/Time
To Go:
Arrived

Flight Plot

Page will automatically refresh every two minutes.


Map Options




Map Legend


Flown Route
Filed Route
Departure Airport
Arrival Airport
Navaid (VOR, NDB)
Fix

Horizontal Profiles

Position Reports

Time Latitude Longitude Heading Altitude Ground
Speed
10-Jan-20 19:30 38.810298 -104.720573 86 6191ft 0kts
10-Jan-20 19:31 38.810298 -104.720573 86 6191ft 0kts
10-Jan-20 19:32 38.810298 -104.720573 86 6191ft 0kts
10-Jan-20 19:33 38.810298 -104.720573 86 6191ft 0kts
10-Jan-20 19:34 38.810298 -104.720573 86 6191ft 0kts
10-Jan-20 19:35 38.810298 -104.720573 86 6191ft 0kts
10-Jan-20 19:36 38.810298 -104.720573 86 6191ft 0kts
10-Jan-20 19:37 38.810298 -104.720573 86 6191ft 0kts
10-Jan-20 19:38 38.810298 -104.720573 86 6191ft 0kts
10-Jan-20 19:39 38.810298 -104.720573 86 6191ft 0kts
10-Jan-20 19:40 38.810299 -104.720547 86 6191ft 1kts
10-Jan-20 19:41 38.811147 -104.719531 359 6191ft 6kts
10-Jan-20 19:42 38.812610 -104.718084 90 6191ft 8kts
10-Jan-20 19:43 38.815546 -104.717320 359 6191ft 16kts
10-Jan-20 19:44 38.821033 -104.717308 358 6191ft 21kts
10-Jan-20 19:45 38.822284 -104.717079 55 6191ft 0kts
10-Jan-20 19:46 38.822284 -104.717079 55 6191ft 0kts
10-Jan-20 19:47 38.822425 -104.716689 65 6191ft 11kts
10-Jan-20 19:48 38.816916 -104.715883 179 6191ft 93kts
10-Jan-20 19:49 38.782907 -104.716884 179 6968ft 135kts
10-Jan-20 19:50 38.742642 -104.715939 180 7795ft 148kts
10-Jan-20 19:51 38.701323 -104.714985 179 8428ft 161kts
10-Jan-20 19:52 38.656308 -104.711121 146 8475ft 161kts
10-Jan-20 19:53 38.667826 -104.668053 9 8436ft 166kts
10-Jan-20 19:54 38.715510 -104.665136 3 8514ft 179kts
10-Jan-20 19:55 38.766279 -104.657815 2 8511ft 184kts
10-Jan-20 19:56 38.817848 -104.650916 2 8620ft 174kts
10-Jan-20 19:57 38.866577 -104.644351 2 8495ft 173kts
10-Jan-20 19:58 38.914859 -104.637990 2 8475ft 173kts
10-Jan-20 19:59 38.962885 -104.637157 344 8500ft 169kts
10-Jan-20 20:00 39.008341 -104.654248 340 8466ft 171kts
10-Jan-20 20:01 39.054540 -104.671083 341 8432ft 171kts
10-Jan-20 20:02 39.098464 -104.686890 339 8836ft 157kts
10-Jan-20 20:03 39.140949 -104.701803 338 9222ft 155kts
10-Jan-20 20:04 39.179779 -104.714590 341 10038ft 141kts
10-Jan-20 20:05 39.223202 -104.728785 337 9261ft 165kts
10-Jan-20 20:06 39.268572 -104.746570 337 8642ft 174kts
10-Jan-20 20:07 39.318609 -104.763641 341 8474ft 185kts
10-Jan-20 20:08 39.370110 -104.781312 342 8056ft 200kts
10-Jan-20 20:09 39.424372 -104.799319 341 7695ft 194kts
10-Jan-20 20:10 39.473522 -104.814683 350 7473ft 161kts
10-Jan-20 20:11 39.514999 -104.829872 341 6883ft 148kts
10-Jan-20 20:12 39.539966 -104.863526 325 6859ft 146kts
10-Jan-20 20:13 39.578852 -104.870700 5 6820ft 131kts
10-Jan-20 20:14 39.609917 -104.857915 82 6352ft 122kts
10-Jan-20 20:15 39.583280 -104.851439 177 5913ft 102kts
10-Jan-20 20:16 39.578283 -104.850126 41 5888ft 0kts
10-Jan-20 20:17 39.577962 -104.849826 171 5888ft 10kts
10-Jan-20 20:18 39.573808 -104.848610 118 5888ft 15kts
10-Jan-20 20:19 39.573378 -104.846359 234 5888ft 0kts
10-Jan-20 20:20 39.573378 -104.846359 234 5888ft 0kts

Navigation Log

Ident Type
Flight plan parsing failed, navigation log unavailable